Time;durP1;ratioP1;P1;durP2;ratioP2;P2;SDS_P1;SDS_P2;PMS_P1;PMS_P2;Temp;Humidity;BMP_temperature;BMP_pressure;BME280_temperature;BME280_humidity;BME280_pressure;Samples;Min_cycle;Max_cycle;Signal;HPM_P1;HPM_P2
2023/08/07 00:00:24;;;;;;;3.70;3.10;;;;;;;;;;6278318;22;20015;-94
2023/08/07 00:02:50;;;;;;;4.43;2.60;;;;;;;;;;6304604;22;20035;-94
2023/08/07 00:05:16;;;;;;;5.97;2.90;;;;;;;;;;6303859;22;20011;-93
2023/08/07 00:07:43;;;;;;;7.15;3.15;;;;;;;;;;6306171;22;20049;-92
2023/08/07 00:10:09;;;;;;;3.45;2.40;;;;;;;;;;6304468;22;20309;-92
2023/08/07 00:12:35;;;;;;;4.18;2.80;;;;;;;;;;6277276;22;20561;-93
2023/08/07 00:15:01;;;;;;;5.47;3.10;;;;;;;;;;6278956;22;20011;-90
2023/08/07 00:17:27;;;;;;;4.20;2.50;;;;;;;;;;6306666;22;20007;-93
2023/08/07 00:19:53;;;;;;;3.97;3.05;;;;;;;;;;6306308;22;20018;-96
2023/08/07 00:22:19;;;;;;;3.67;2.83;;;;;;;;;;6306074;22;20324;-95
2023/08/07 00:24:45;;;;;;;4.80;2.10;;;;;;;;;;6307260;22;20011;-92
2023/08/07 00:27:12;;;;;;;3.60;2.55;;;;;;;;;;6306385;22;20012;-92
2023/08/07 00:29:38;;;;;;;5.13;2.45;;;;;;;;;;6306739;22;20016;-94
2023/08/07 00:32:04;;;;;;;4.78;2.17;;;;;;;;;;6305875;22;20016;-93
2023/08/07 00:34:30;;;;;;;3.35;2.55;;;;;;;;;;6305541;22;20011;-94
2023/08/07 00:36:57;;;;;;;5.18;2.50;;;;;;;;;;6306495;22;20087;-95
2023/08/07 00:39:23;;;;;;;4.07;2.85;;;;;;;;;;6306432;22;20027;-92
2023/08/07 00:41:49;;;;;;;2.70;2.33;;;;;;;;;;6306377;22;20057;-93
2023/08/07 00:44:15;;;;;;;3.45;2.40;;;;;;;;;;6278993;22;20104;-93
2023/08/07 00:46:41;;;;;;;3.47;2.00;;;;;;;;;;6305932;22;20021;-92
2023/08/07 00:49:09;;;;;;;4.40;2.60;;;;;;;;;;6278372;22;20019;-93
2023/08/07 00:51:36;;;;;;;3.45;2.17;;;;;;;;;;6306276;22;20047;-92
2023/08/07 00:54:03;;;;;;;3.60;2.30;;;;;;;;;;6277991;22;20061;-93
2023/08/07 00:56:30;;;;;;;4.65;2.10;;;;;;;;;;6279984;22;20023;-95
2023/08/07 00:58:56;;;;;;;4.50;2.63;;;;;;;;;;6277935;22;20011;-91
2023/08/07 01:01:22;;;;;;;2.92;2.05;;;;;;;;;;6304355;22;20378;-94
2023/08/07 01:03:48;;;;;;;3.45;2.45;;;;;;;;;;6277437;22;20599;-92
2023/08/07 01:06:14;;;;;;;2.95;2.10;;;;;;;;;;6304699;22;20124;-94
2023/08/07 01:08:40;;;;;;;3.50;2.10;;;;;;;;;;6305272;22;20015;-93
2023/08/07 01:11:17;;;;;;;2.33;1.63;;;;;;;;;;6275754;22;20022;-93
2023/08/07 01:13:47;;;;;;;3.35;1.88;;;;;;;;;;6277788;22;20019;-92
2023/08/07 01:16:13;;;;;;;;;;;;;;;;;;6304451;22;20047;-94
2023/08/07 01:18:40;;;;;;;3.95;1.98;;;;;;;;;;6305966;22;19911;-92
2023/08/07 01:21:06;;;;;;;2.75;1.70;;;;;;;;;;6277219;22;20444;-92
2023/08/07 01:23:32;;;;;;;3.42;2.00;;;;;;;;;;6303942;22;20098;-94
2023/08/07 01:25:58;;;;;;;2.90;2.00;;;;;;;;;;6276084;22;20019;-93
2023/08/07 01:28:33;;;;;;;2.67;1.73;;;;;;;;;;6304674;22;20019;-94
2023/08/07 01:31:00;;;;;;;3.80;1.92;;;;;;;;;;6304495;22;20050;-93
2023/08/07 01:33:35;;;;;;;4.30;2.10;;;;;;;;;;6277847;22;20015;-92
2023/08/07 01:36:03;;;;;;;3.58;1.88;;;;;;;;;;6305795;22;20018;-92
2023/08/07 01:38:30;;;;;;;5.85;2.00;;;;;;;;;;6305840;22;20045;-91
2023/08/07 01:40:57;;;;;;;2.80;2.08;;;;;;;;;;6304994;22;20318;-93
2023/08/07 01:43:23;;;;;;;2.97;1.48;;;;;;;;;;6305215;22;20068;-92
2023/08/07 01:45:49;;;;;;;2.25;1.88;;;;;;;;;;6304689;22;20090;-94
2023/08/07 01:48:15;;;;;;;2.75;1.80;;;;;;;;;;6278707;22;20344;-91
2023/08/07 01:50:41;;;;;;;3.20;1.60;;;;;;;;;;6279247;22;20071;-93
2023/08/07 01:53:07;;;;;;;3.17;1.73;;;;;;;;;;6304861;22;20096;-93
2023/08/07 01:55:33;;;;;;;3.35;1.63;;;;;;;;;;6279370;22;20015;-96
2023/08/07 01:57:59;;;;;;;3.70;1.05;;;;;;;;;;6308569;22;20056;-94
2023/08/07 02:00:25;;;;;;;3.17;1.30;;;;;;;;;;6308698;22;20007;-96
2023/08/07 02:02:51;;;;;;;2.20;1.38;;;;;;;;;;6281412;22;20034;-95
2023/08/07 02:05:17;;;;;;;5.35;1.65;;;;;;;;;;6310495;22;20111;-96
2023/08/07 02:07:43;;;;;;;3.63;1.85;;;;;;;;;;6281680;22;20015;-94
2023/08/07 02:10:09;;;;;;;4.65;1.40;;;;;;;;;;6306363;22;20021;-95
2023/08/07 02:12:36;;;;;;;4.85;1.50;;;;;;;;;;6308520;22;20444;-93
2023/08/07 02:15:02;;;;;;;4.97;1.50;;;;;;;;;;6305952;22;20470;-94
2023/08/07 02:17:30;;;;;;;5.03;1.38;;;;;;;;;;6308790;22;20019;-95
2023/08/07 02:19:56;;;;;;;5.80;1.55;;;;;;;;;;6308845;22;20007;-94
2023/08/07 02:22:22;;;;;;;4.05;1.15;;;;;;;;;;6308239;22;20033;-96
2023/08/07 02:24:48;;;;;;;4.38;1.38;;;;;;;;;;6279388;22;20141;-96
2023/08/07 02:27:14;;;;;;;5.40;1.33;;;;;;;;;;6256890;22;20077;-96
2023/08/07 02:29:40;;;;;;;7.82;1.70;;;;;;;;;;6280425;22;20453;-95
2023/08/07 02:32:06;;;;;;;3.85;1.58;;;;;;;;;;6308338;22;20258;-93
2023/08/07 02:34:32;;;;;;;3.83;1.35;;;;;;;;;;6309601;22;20008;-95
2023/08/07 02:36:59;;;;;;;6.07;1.40;;;;;;;;;;6309329;22;20015;-96
2023/08/07 02:39:25;;;;;;;4.75;1.10;;;;;;;;;;6284076;22;20015;-96
2023/08/07 02:41:51;;;;;;;6.38;1.38;;;;;;;;;;6306917;22;20015;-94
2023/08/07 02:44:18;;;;;;;2.15;1.30;;;;;;;;;;6307197;22;20015;-93
2023/08/07 02:46:44;;;;;;;2.72;1.25;;;;;;;;;;6307936;22;20022;-96
2023/08/07 02:49:10;;;;;;;4.40;1.60;;;;;;;;;;6307688;22;20022;-93
2023/08/07 02:51:36;;;;;;;3.33;1.10;;;;;;;;;;6307866;22;20015;-93
2023/08/07 02:54:02;;;;;;;2.92;1.23;;;;;;;;;;6278323;22;20513;-95
2023/08/07 02:56:28;;;;;;;2.95;1.08;;;;;;;;;;6309509;22;20091;-95
2023/08/07 02:58:54;;;;;;;2.80;1.25;;;;;;;;;;6309182;22;20086;-92
2023/08/07 03:01:21;;;;;;;2.38;1.20;;;;;;;;;;6309770;22;20015;-93
2023/08/07 03:03:47;;;;;;;2.72;1.20;;;;;;;;;;6306621;22;20023;-92
2023/08/07 03:06:13;;;;;;;3.60;1.50;;;;;;;;;;6306339;22;20043;-94
2023/08/07 03:08:39;;;;;;;3.95;1.40;;;;;;;;;;6307467;22;20317;-93
2023/08/07 03:11:05;;;;;;;2.55;1.20;;;;;;;;;;6305445;22;20064;-96
2023/08/07 03:13:31;;;;;;;8.48;1.50;;;;;;;;;;6278765;22;20043;-93
2023/08/07 03:16:04;;;;;;;3.28;1.10;;;;;;;;;;6306238;22;20064;-95
2023/08/07 03:18:31;;;;;;;4.45;1.42;;;;;;;;;;6277295;22;20011;-93
2023/08/07 03:20:57;;;;;;;4.10;1.08;;;;;;;;;;6306923;22;20019;-92
2023/08/07 03:23:23;;;;;;;1.95;1.05;;;;;;;;;;6280316;22;20102;-94
2023/08/07 03:25:50;;;;;;;4.35;1.15;;;;;;;;;;6307722;22;20015;-95
2023/08/07 03:28:16;;;;;;;4.38;0.88;;;;;;;;;;6308466;22;20058;-96
2023/08/07 03:30:42;;;;;;;3.55;1.63;;;;;;;;;;6252980;22;20432;-92
2023/08/07 03:33:08;;;;;;;3.13;0.82;;;;;;;;;;6305672;22;20050;-91
2023/08/07 03:35:34;;;;;;;5.25;1.00;;;;;;;;;;6279847;22;20015;-96
2023/08/07 03:38:00;;;;;;;4.95;1.10;;;;;;;;;;6280400;22;20012;-94
2023/08/07 03:40:26;;;;;;;3.65;1.08;;;;;;;;;;6305963;22;20067;-94
2023/08/07 03:42:52;;;;;;;4.10;1.08;;;;;;;;;;6279587;22;20027;-93
2023/08/07 03:45:18;;;;;;;3.63;1.23;;;;;;;;;;6280779;22;20023;-93
2023/08/07 03:47:44;;;;;;;3.90;1.60;;;;;;;;;;6285412;22;20011;-94
2023/08/07 03:50:10;;;;;;;5.88;1.40;;;;;;;;;;6287380;22;20056;-95
2023/08/07 03:52:36;;;;;;;6.78;1.80;;;;;;;;;;6279112;22;20086;-92
2023/08/07 03:55:02;;;;;;;4.53;1.55;;;;;;;;;;6307299;22;20047;-93
2023/08/07 03:57:28;;;;;;;3.05;1.35;;;;;;;;;;6305926;22;20371;-92
2023/08/07 03:59:54;;;;;;;8.75;1.80;;;;;;;;;;6306192;22;20022;-93
2023/08/07 04:02:20;;;;;;;3.78;1.17;;;;;;;;;;6305968;22;20007;-96
2023/08/07 04:04:46;;;;;;;3.85;1.30;;;;;;;;;;6306907;22;20011;-93
2023/08/07 04:07:12;;;;;;;4.70;1.42;;;;;;;;;;6276244;22;20026;-96
2023/08/07 04:09:38;;;;;;;5.70;1.20;;;;;;;;;;6277151;22;20023;-92
2023/08/07 04:12:04;;;;;;;4.63;2.08;;;;;;;;;;6303598;22;20011;-93
2023/08/07 04:14:30;;;;;;;4.57;1.33;;;;;;;;;;6304781;22;20064;-95
2023/08/07 04:16:57;;;;;;;5.63;1.67;;;;;;;;;;6305519;22;20011;-91
2023/08/07 04:19:22;;;;;;;3.42;1.17;;;;;;;;;;6276096;22;20018;-87
2023/08/07 04:21:49;;;;;;;6.30;1.30;;;;;;;;;;6302813;22;20037;-87
2023/08/07 04:24:15;;;;;;;10.23;1.77;;;;;;;;;;6302714;22;20830;-86
2023/08/07 04:26:41;;;;;;;2.60;1.42;;;;;;;;;;6302003;22;20024;-85
2023/08/07 04:29:07;;;;;;;3.17;1.02;;;;;;;;;;6302500;22;20090;-86
2023/08/07 04:31:33;;;;;;;5.18;0.88;;;;;;;;;;6303134;22;20078;-83
2023/08/07 04:33:59;;;;;;;2.22;0.82;;;;;;;;;;6302129;22;20383;-82
2023/08/07 04:36:26;;;;;;;3.05;1.05;;;;;;;;;;6302861;22;20078;-82
2023/08/07 04:38:52;;;;;;;2.65;1.08;;;;;;;;;;6274803;22;20019;-84
2023/08/07 04:41:18;;;;;;;3.55;1.55;;;;;;;;;;6301577;22;20099;-84
2023/08/07 04:43:44;;;;;;;2.67;1.00;;;;;;;;;;6275589;22;20450;-84
2023/08/07 04:46:11;;;;;;;2.45;1.05;;;;;;;;;;6301568;22;20439;-84
2023/08/07 04:48:37;;;;;;;5.30;1.50;;;;;;;;;;6302570;22;20142;-84
2023/08/07 04:51:03;;;;;;;4.65;1.85;;;;;;;;;;6301907;22;20022;-86
2023/08/07 04:53:29;;;;;;;7.45;1.67;;;;;;;;;;6274528;22;20344;-83
2023/08/07 04:55:55;;;;;;;2.40;1.30;;;;;;;;;;6301533;22;20014;-84
2023/08/07 04:58:21;;;;;;;4.38;1.60;;;;;;;;;;6302504;22;20022;-85
2023/08/07 05:00:47;;;;;;;3.00;1.85;;;;;;;;;;6276616;22;20015;-85
2023/08/07 05:03:15;;;;;;;3.28;1.35;;;;;;;;;;6276281;22;20406;-86
2023/08/07 05:05:41;;;;;;;3.05;1.45;;;;;;;;;;6303968;22;20037;-83
2023/08/07 05:08:07;;;;;;;8.88;1.67;;;;;;;;;;6302747;22;20011;-84
2023/08/07 05:10:33;;;;;;;7.15;1.75;;;;;;;;;;6304250;22;20090;-85
2023/08/07 05:12:59;;;;;;;3.08;1.58;;;;;;;;;;6303376;22;20061;-85
2023/08/07 05:15:28;;;;;;;3.35;1.50;;;;;;;;;;6304113;22;20340;-86
2023/08/07 05:17:54;;;;;;;2.58;1.45;;;;;;;;;;6303362;22;20086;-85
2023/08/07 05:20:20;;;;;;;3.17;1.60;;;;;;;;;;6276080;22;20022;-85
2023/08/07 05:22:46;;;;;;;4.18;1.60;;;;;;;;;;6303788;22;20021;-85
2023/08/07 05:25:15;;;;;;;5.82;1.83;;;;;;;;;;6303011;22;20339;-85
2023/08/07 05:27:41;;;;;;;3.80;1.30;;;;;;;;;;6276838;22;20046;-88
2023/08/07 05:30:08;;;;;;;4.03;1.38;;;;;;;;;;6275795;22;20008;-86
2023/08/07 05:32:37;;;;;;;5.35;1.92;;;;;;;;;;6304557;22;20015;-86
2023/08/07 05:35:03;;;;;;;5.15;1.95;;;;;;;;;;6303172;22;20007;-88
2023/08/07 05:37:31;;;;;;;6.75;1.55;;;;;;;;;;6274010;22;20456;-87
2023/08/07 05:39:57;;;;;;;5.70;2.13;;;;;;;;;;6273904;22;20096;-84
2023/08/07 05:42:23;;;;;;;4.65;1.60;;;;;;;;;;6303610;22;20012;-84
2023/08/07 05:44:49;;;;;;;4.50;1.48;;;;;;;;;;6303556;22;20030;-83
2023/08/07 05:47:15;;;;;;;4.50;1.70;;;;;;;;;;6303082;22;20344;-86
2023/08/07 05:49:41;;;;;;;4.80;1.50;;;;;;;;;;6275592;22;20099;-83
2023/08/07 05:52:07;;;;;;;6.72;1.83;;;;;;;;;;6274056;22;20051;-83
2023/08/07 05:54:34;;;;;;;3.10;1.38;;;;;;;;;;6275841;22;20019;-85
2023/08/07 05:57:00;;;;;;;2.85;1.80;;;;;;;;;;6274366;22;20015;-94
2023/08/07 05:59:26;;;;;;;5.85;2.30;;;;;;;;;;6307531;22;20041;-91
2023/08/07 06:01:52;;;;;;;5.40;1.75;;;;;;;;;;6282549;22;20459;-91
2023/08/07 06:04:18;;;;;;;5.63;2.28;;;;;;;;;;6303443;22;20019;-90
2023/08/07 06:06:45;;;;;;;4.68;1.80;;;;;;;;;;6304279;22;20015;-84
2023/08/07 06:09:12;;;;;;;8.18;1.60;;;;;;;;;;6275713;22;20344;-83
2023/08/07 06:11:38;;;;;;;4.18;1.70;;;;;;;;;;6303912;22;20019;-83
2023/08/07 06:14:04;;;;;;;4.85;1.80;;;;;;;;;;6303374;22;20015;-84
2023/08/07 06:16:30;;;;;;;3.10;1.58;;;;;;;;;;6303856;22;20070;-83
2023/08/07 06:18:56;;;;;;;4.38;1.90;;;;;;;;;;6275764;22;20018;-84
2023/08/07 06:21:22;;;;;;;4.15;1.77;;;;;;;;;;6275660;22;20043;-84
2023/08/07 06:23:49;;;;;;;6.40;1.83;;;;;;;;;;6304288;22;20064;-83
2023/08/07 06:26:15;;;;;;;6.55;2.72;;;;;;;;;;6303176;22;20770;-84
2023/08/07 06:28:42;;;;;;;7.90;2.20;;;;;;;;;;6276812;22;20073;-84
2023/08/07 06:31:08;;;;;;;6.70;2.30;;;;;;;;;;6250146;22;20011;-84
2023/08/07 06:33:35;;;;;;;7.63;2.00;;;;;;;;;;6304082;22;20007;-86
2023/08/07 06:36:02;;;;;;;2.95;1.52;;;;;;;;;;6302632;22;20011;-85
2023/08/07 06:38:28;;;;;;;6.35;2.00;;;;;;;;;;6303638;22;20403;-85
2023/08/07 06:40:54;;;;;;;4.78;1.40;;;;;;;;;;6302283;22;20015;-85
2023/08/07 06:43:20;;;;;;;8.98;2.22;;;;;;;;;;6275836;22;20015;-86
2023/08/07 06:45:53;;;;;;;4.45;1.95;;;;;;;;;;6304021;22;20390;-85
2023/08/07 06:48:19;;;;;;;6.28;2.13;;;;;;;;;;6275337;22;20025;-85
2023/08/07 06:50:46;;;;;;;2.00;1.35;;;;;;;;;;6303327;22;20015;-84
2023/08/07 06:53:12;;;;;;;5.18;1.77;;;;;;;;;;6274787;22;20015;-82
2023/08/07 06:55:38;;;;;;;5.50;1.75;;;;;;;;;;6303827;22;20328;-85
2023/08/07 06:58:04;;;;;;;2.20;1.63;;;;;;;;;;6275353;22;20011;-83
2023/08/07 07:00:31;;;;;;;4.18;1.25;;;;;;;;;;6275989;22;20015;-86
2023/08/07 07:02:57;;;;;;;3.58;1.10;;;;;;;;;;6302254;22;20015;-86
2023/08/07 07:05:23;;;;;;;6.47;1.70;;;;;;;;;;6301452;22;20011;-85
2023/08/07 07:07:49;;;;;;;7.03;1.90;;;;;;;;;;6275713;22;20393;-87
2023/08/07 07:10:15;;;;;;;3.80;1.40;;;;;;;;;;6275370;22;20045;-86
2023/08/07 07:12:41;;;;;;;3.85;1.58;;;;;;;;;;6303591;22;20340;-86
2023/08/07 07:15:10;;;;;;;5.40;1.55;;;;;;;;;;6302099;22;20305;-86
2023/08/07 07:17:36;;;;;;;5.25;2.10;;;;;;;;;;6276063;22;20019;-85
2023/08/07 07:20:02;;;;;;;7.15;2.50;;;;;;;;;;6273898;22;20031;-86
2023/08/07 07:22:28;;;;;;;3.55;1.35;;;;;;;;;;6302455;22;20022;-86
2023/08/07 07:24:54;;;;;;;9.25;2.10;;;;;;;;;;6302886;22;20089;-88
2023/08/07 07:27:22;;;;;;;4.32;1.70;;;;;;;;;;6302938;22;20571;-88
2023/08/07 07:29:48;;;;;;;5.40;2.20;;;;;;;;;;6303799;22;20015;-90
2023/08/07 07:32:14;;;;;;;4.68;1.50;;;;;;;;;;6303153;22;20015;-89
2023/08/07 07:34:40;;;;;;;7.18;2.70;;;;;;;;;;6303238;22;20336;-91
2023/08/07 07:37:06;;;;;;;7.45;1.80;;;;;;;;;;6274834;22;20090;-89
2023/08/07 07:39:32;;;;;;;2.88;0.68;;;;;;;;;;6303759;22;20015;-87
2023/08/07 07:41:58;;;;;;;3.83;1.75;;;;;;;;;;6275289;22;20019;-85
2023/08/07 07:44:24;;;;;;;3.20;1.20;;;;;;;;;;6303209;22;20008;-85
2023/08/07 07:46:50;;;;;;;2.85;1.52;;;;;;;;;;6303342;22;20462;-84
2023/08/07 07:49:16;;;;;;;3.45;1.10;;;;;;;;;;6301719;22;20090;-84
2023/08/07 07:51:44;;;;;;;5.90;1.20;;;;;;;;;;6303506;22;20313;-88
2023/08/07 07:54:10;;;;;;;4.50;1.35;;;;;;;;;;6301889;22;20076;-86
2023/08/07 07:56:37;;;;;;;3.38;0.90;;;;;;;;;;6302346;22;20018;-85
2023/08/07 07:59:03;;;;;;;2.90;1.20;;;;;;;;;;6274934;22;20015;-85
2023/08/07 08:01:29;;;;;;;3.65;0.95;;;;;;;;;;6303957;22;20011;-90
2023/08/07 08:03:55;;;;;;;3.47;1.20;;;;;;;;;;6302702;22;20019;-86
2023/08/07 08:06:21;;;;;;;4.68;1.77;;;;;;;;;;6275604;22;20016;-87
2023/08/07 08:08:47;;;;;;;3.05;1.30;;;;;;;;;;6302988;22;20015;-87
2023/08/07 08:11:14;;;;;;;1.60;0.90;;;;;;;;;;6274608;22;20073;-89
2023/08/07 08:13:41;;;;;;;3.83;1.02;;;;;;;;;;6303527;22;20014;-88
2023/08/07 08:16:07;;;;;;;1.52;0.60;;;;;;;;;;6302855;22;20120;-89
2023/08/07 08:18:33;;;;;;;3.75;0.90;;;;;;;;;;6301102;22;20012;-88
2023/08/07 08:20:59;;;;;;;2.90;1.02;;;;;;;;;;6275146;22;20011;-86
2023/08/07 08:23:25;;;;;;;2.30;1.00;;;;;;;;;;6302549;22;20436;-88
2023/08/07 08:25:51;;;;;;;1.90;1.30;;;;;;;;;;6303032;22;20019;-86
2023/08/07 08:28:17;;;;;;;4.32;1.08;;;;;;;;;;6274792;22;20023;-88
2023/08/07 08:30:43;;;;;;;3.80;1.38;;;;;;;;;;6303296;22;20008;-91
2023/08/07 08:33:12;;;;;;;3.53;1.42;;;;;;;;;;6302283;22;20022;-94
2023/08/07 08:35:38;;;;;;;3.70;1.27;;;;;;;;;;6277864;22;20022;-94
2023/08/07 08:38:04;;;;;;;6.35;1.20;;;;;;;;;;6305883;22;20011;-91
2023/08/07 08:40:34;;;;;;;4.78;1.38;;;;;;;;;;6304999;22;20015;-83
2023/08/07 08:43:00;;;;;;;3.10;1.17;;;;;;;;;;6251330;22;20038;-84
2023/08/07 08:45:27;;;;;;;2.17;1.30;;;;;;;;;;6276607;22;20321;-85
2023/08/07 08:48:01;;;;;;;3.67;1.30;;;;;;;;;;6304818;22;20023;-85
2023/08/07 08:50:27;;;;;;;6.43;1.92;;;;;;;;;;6304752;22;20011;-86
2023/08/07 08:52:54;;;;;;;2.58;1.38;;;;;;;;;;6304385;22;20049;-85
2023/08/07 08:55:21;;;;;;;8.43;1.80;;;;;;;;;;6277146;22;20022;-86
2023/08/07 08:57:47;;;;;;;7.55;2.00;;;;;;;;;;6304983;22;20039;-85
2023/08/07 09:00:20;;;;;;;5.60;1.75;;;;;;;;;;6275676;22;20382;-85
2023/08/07 09:02:46;;;;;;;2.70;1.00;;;;;;;;;;6252072;22;20023;-86
2023/08/07 09:05:12;;;;;;;6.53;1.83;;;;;;;;;;6276271;22;20478;-90
2023/08/07 09:07:38;;;;;;;9.95;2.22;;;;;;;;;;6277063;22;20055;-84
2023/08/07 09:10:04;;;;;;;2.80;1.33;;;;;;;;;;6277045;22;20322;-93
2023/08/07 09:12:33;;;;;;;5.32;1.65;;;;;;;;;;6304968;22;20019;-86
2023/08/07 09:15:00;;;;;;;5.50;1.67;;;;;;;;;;6304014;22;20011;-89
2023/08/07 09:17:29;;;;;;;8.60;2.15;;;;;;;;;;6276658;22;20012;-93
2023/08/07 09:19:55;;;;;;;4.15;1.80;;;;;;;;;;6276921;22;20016;-94
2023/08/07 09:22:21;;;;;;;8.75;2.67;;;;;;;;;;6277141;22;20440;-94
2023/08/07 09:24:47;;;;;;;3.53;1.63;;;;;;;;;;6277571;22;20015;-88
2023/08/07 09:27:14;;;;;;;2.63;1.00;;;;;;;;;;6304137;22;20480;-88
2023/08/07 09:29:40;;;;;;;2.00;0.80;;;;;;;;;;6305094;22;20015;-90
2023/08/07 09:32:08;;;;;;;5.50;1.40;;;;;;;;;;6305033;22;20011;-91
2023/08/07 09:34:34;;;;;;;4.10;1.77;;;;;;;;;;6305119;22;20011;-95
2023/08/07 09:37:00;;;;;;;2.72;1.35;;;;;;;;;;6305222;22;20440;-89
2023/08/07 09:39:27;;;;;;;5.88;1.60;;;;;;;;;;6305241;22;20099;-91
2023/08/07 09:41:53;;;;;;;3.40;1.45;;;;;;;;;;6309823;22;20429;-93
2023/08/07 09:44:19;;;;;;;4.15;1.48;;;;;;;;;;6312216;22;20007;-91
2023/08/07 09:46:45;;;;;;;4.63;1.80;;;;;;;;;;6308864;22;20015;-90
2023/08/07 09:49:11;;;;;;;6.85;1.30;;;;;;;;;;6306158;22;20022;-93
2023/08/07 09:51:43;;;;;;;4.55;2.00;;;;;;;;;;6306423;22;20392;-93
2023/08/07 09:54:09;;;;;;;3.30;1.20;;;;;;;;;;6308010;22;20027;-93
2023/08/07 09:56:38;;;;;;;4.30;1.40;;;;;;;;;;6305615;22;20019;-93
2023/08/07 09:59:05;;;;;;;4.90;1.65;;;;;;;;;;6306879;22;20042;-92
2023/08/07 10:01:31;;;;;;;3.13;1.45;;;;;;;;;;6307572;22;20086;-89
2023/08/07 10:03:58;;;;;;;4.97;2.15;;;;;;;;;;6306665;22;20015;-93
2023/08/07 10:06:24;;;;;;;5.13;1.88;;;;;;;;;;6307055;22;20087;-92
2023/08/07 10:08:50;;;;;;;6.55;1.67;;;;;;;;;;6305970;22;20019;-88
2023/08/07 10:11:17;;;;;;;3.47;1.73;;;;;;;;;;6277902;22;20138;-93
2023/08/07 10:13:43;;;;;;;6.25;1.65;;;;;;;;;;6310757;22;20011;-91
2023/08/07 10:16:10;;;;;;;3.38;1.50;;;;;;;;;;6310995;22;20072;-93
2023/08/07 10:18:36;;;;;;;4.60;1.42;;;;;;;;;;6284609;22;20011;-92
2023/08/07 10:21:03;;;;;;;4.10;1.48;;;;;;;;;;6281894;22;20015;-95
2023/08/07 10:23:29;;;;;;;3.20;1.27;;;;;;;;;;6280586;22;20015;-95
2023/08/07 10:25:55;;;;;;;4.85;1.50;;;;;;;;;;6307363;22;20310;-95
2023/08/07 10:28:23;;;;;;;4.22;1.42;;;;;;;;;;6305677;22;20015;-92
2023/08/07 10:30:50;;;;;;;3.47;1.38;;;;;;;;;;6278967;22;20015;-93
2023/08/07 10:33:17;;;;;;;3.80;1.70;;;;;;;;;;6307135;22;20019;-94
2023/08/07 10:35:48;;;;;;;5.22;1.08;;;;;;;;;;6307154;22;20011;-92
2023/08/07 10:38:14;;;;;;;3.38;1.60;;;;;;;;;;6308394;22;20515;-87
2023/08/07 10:40:59;;;;;;;3.63;1.08;;;;;;;;;;6305962;22;20019;-94
2023/08/07 10:43:27;;;;;;;2.35;1.20;;;;;;;;;;6286954;22;20007;-95
2023/08/07 10:45:53;;;;;;;2.47;1.08;;;;;;;;;;6307733;22;20065;-87
2023/08/07 10:48:19;;;;;;;4.90;1.52;;;;;;;;;;6278560;22;20015;-91
2023/08/07 10:50:57;;;;;;;3.58;1.95;;;;;;;;;;6283290;22;20019;-95
2023/08/07 10:53:29;;;;;;;2.70;0.88;;;;;;;;;;6279562;22;20019;-92
2023/08/07 10:55:57;;;;;;;4.40;1.77;;;;;;;;;;6305453;22;20007;-92
2023/08/07 10:58:24;;;;;;;5.70;1.52;;;;;;;;;;6304413;22;20300;-89
2023/08/07 11:01:13;;;;;;;3.33;1.20;;;;;;;;;;6307940;22;20399;-86
2023/08/07 11:03:41;;;;;;;3.20;1.63;;;;;;;;;;6277828;22;20007;-95
2023/08/07 11:06:07;;;;;;;5.07;1.52;;;;;;;;;;6305344;22;20438;-90
2023/08/07 11:08:33;;;;;;;3.97;1.38;;;;;;;;;;6307289;22;20086;-90
2023/08/07 11:11:04;;;;;;;4.72;1.42;;;;;;;;;;6276363;22;20065;-90
2023/08/07 11:13:31;;;;;;;2.63;0.77;;;;;;;;;;6277453;22;20019;-93
2023/08/07 11:15:57;;;;;;;5.88;1.50;;;;;;;;;;6305850;22;20030;-91
2023/08/07 11:18:23;;;;;;;5.45;1.08;;;;;;;;;;6304825;22;20082;-93
2023/08/07 11:20:49;;;;;;;3.38;1.92;;;;;;;;;;6277756;22;20018;-91
2023/08/07 11:23:15;;;;;;;4.65;1.35;;;;;;;;;;6304636;22;20015;-89
2023/08/07 11:25:42;;;;;;;2.00;1.00;;;;;;;;;;6304409;22;20022;-93
2023/08/07 11:28:08;;;;;;;3.70;1.55;;;;;;;;;;6304131;22;20015;-94
2023/08/07 11:30:35;;;;;;;2.85;1.10;;;;;;;;;;6252127;22;20022;-92
2023/08/07 11:33:02;;;;;;;1.70;0.90;;;;;;;;;;6304188;22;20331;-91
2023/08/07 11:35:28;;;;;;;2.65;1.17;;;;;;;;;;6306604;22;20450;-89
2023/08/07 11:37:54;;;;;;;5.95;1.10;;;;;;;;;;6307182;22;20444;-91
2023/08/07 11:40:20;;;;;;;4.40;1.10;;;;;;;;;;6305714;22;20012;-87
2023/08/07 11:42:47;;;;;;;2.65;1.00;;;;;;;;;;6305085;22;20019;-93
2023/08/07 11:45:13;;;;;;;2.75;1.17;;;;;;;;;;6304143;22;20007;-93
2023/08/07 11:47:39;;;;;;;2.30;0.90;;;;;;;;;;6304325;22;20391;-90
2023/08/07 11:50:05;;;;;;;2.55;1.23;;;;;;;;;;6304119;22;20012;-89
2023/08/07 11:52:31;;;;;;;2.05;1.33;;;;;;;;;;6306257;22;20019;-93
2023/08/07 11:54:57;;;;;;;2.53;1.00;;;;;;;;;;6304244;22;20012;-92
2023/08/07 11:57:25;;;;;;;1.40;0.75;;;;;;;;;;6303049;22;20041;-94
2023/08/07 11:59:51;;;;;;;3.67;1.35;;;;;;;;;;6306296;22;20087;-90
2023/08/07 12:02:23;;;;;;;3.13;1.30;;;;;;;;;;6305542;22;20314;-91
2023/08/07 12:04:49;;;;;;;1.63;0.75;;;;;;;;;;6277914;22;20011;-90
2023/08/07 12:07:19;;;;;;;2.33;0.90;;;;;;;;;;6277541;22;20917;-92
2023/08/07 12:09:45;;;;;;;2.35;1.40;;;;;;;;;;6306952;22;20019;-90
2023/08/07 12:12:11;;;;;;;1.20;0.85;;;;;;;;;;6309900;22;20015;-90
2023/08/07 12:14:39;;;;;;;2.22;0.90;;;;;;;;;;6308424;22;20386;-91
2023/08/07 12:17:05;;;;;;;4.15;1.30;;;;;;;;;;6308180;22;20011;-92
2023/08/07 12:19:42;;;;;;;4.55;1.60;;;;;;;;;;6307492;22;20040;-91
2023/08/07 12:22:10;;;;;;;4.18;1.17;;;;;;;;;;6306326;22;20015;-92
2023/08/07 12:24:37;;;;;;;3.35;1.05;;;;;;;;;;6280901;22;20015;-90
2023/08/07 12:27:03;;;;;;;3.15;1.27;;;;;;;;;;6308244;22;20011;-87
2023/08/07 12:29:29;;;;;;;1.80;1.10;;;;;;;;;;6308287;22;20015;-88
2023/08/07 12:31:58;;;;;;;1.75;0.80;;;;;;;;;;6307607;22;20018;-90
2023/08/07 12:34:25;;;;;;;3.45;1.10;;;;;;;;;;6306755;22;20030;-90
2023/08/07 12:36:51;;;;;;;4.70;1.25;;;;;;;;;;6280200;22;20026;-94
2023/08/07 12:39:17;;;;;;;2.10;0.77;;;;;;;;;;6280577;22;20094;-92
2023/08/07 12:41:43;;;;;;;5.15;1.30;;;;;;;;;;6281513;22;20047;-93
2023/08/07 12:44:09;;;;;;;2.78;1.45;;;;;;;;;;6307735;22;20022;-95
2023/08/07 12:46:37;;;;;;;8.98;1.75;;;;;;;;;;6309725;22;20011;-91
2023/08/07 12:49:03;;;;;;;3.22;1.30;;;;;;;;;;6310887;22;20018;-96
2023/08/07 12:51:29;;;;;;;5.05;1.40;;;;;;;;;;6309501;22;20019;-91
2023/08/07 12:53:55;;;;;;;2.55;0.80;;;;;;;;;;6307390;22;20007;-92
2023/08/07 12:56:21;;;;;;;2.08;0.90;;;;;;;;;;6308933;22;20015;-93
2023/08/07 12:58:47;;;;;;;2.10;1.42;;;;;;;;;;6309993;22;20015;-94
2023/08/07 13:01:13;;;;;;;3.90;1.05;;;;;;;;;;6308301;22;20419;-95
2023/08/07 13:03:39;;;;;;;1.70;1.20;;;;;;;;;;6282983;22;20084;-94
2023/08/07 13:06:08;;;;;;;1.73;1.00;;;;;;;;;;6310194;22;20011;-90
2023/08/07 13:08:34;;;;;;;1.55;1.27;;;;;;;;;;6307564;22;20043;-90
2023/08/07 13:11:01;;;;;;;3.22;0.60;;;;;;;;;;6307743;22;20300;-88
2023/08/07 13:13:27;;;;;;;2.33;1.05;;;;;;;;;;6307894;22;20019;-90
2023/08/07 13:15:54;;;;;;;1.17;0.90;;;;;;;;;;6281662;22;20020;-90
2023/08/07 13:18:20;;;;;;;2.05;1.05;;;;;;;;;;6310803;22;20018;-94
2023/08/07 13:20:46;;;;;;;3.28;1.35;;;;;;;;;;6308672;22;20007;-92
2023/08/07 13:23:12;;;;;;;4.30;1.27;;;;;;;;;;6304739;22;20389;-92
2023/08/07 13:25:38;;;;;;;5.28;1.25;;;;;;;;;;6306417;22;20188;-89
2023/08/07 13:28:06;;;;;;;2.05;0.90;;;;;;;;;;6279023;22;20008;-94
2023/08/07 13:30:35;;;;;;;2.47;1.40;;;;;;;;;;6306301;22;20011;-90
2023/08/07 13:33:01;;;;;;;2.13;1.10;;;;;;;;;;6305302;22;20018;-91
2023/08/07 13:35:27;;;;;;;3.20;1.20;;;;;;;;;;6304823;22;20346;-92
2023/08/07 13:37:53;;;;;;;4.70;1.40;;;;;;;;;;6282065;22;20080;-93
2023/08/07 13:40:20;;;;;;;2.55;1.50;;;;;;;;;;6309119;22;20100;-87
2023/08/07 13:42:46;;;;;;;3.97;1.73;;;;;;;;;;6306735;22;20537;-90
2023/08/07 13:45:13;;;;;;;3.60;1.42;;;;;;;;;;6305315;22;20007;-94
2023/08/07 13:47:40;;;;;;;5.93;1.40;;;;;;;;;;6279368;22;20387;-91
2023/08/07 13:50:07;;;;;;;3.78;1.70;;;;;;;;;;6306539;22;20392;-93
2023/08/07 13:52:33;;;;;;;4.32;1.80;;;;;;;;;;6278771;22;20090;-93
2023/08/07 13:54:59;;;;;;;4.32;2.35;;;;;;;;;;6279139;22;20011;-91
2023/08/07 13:57:25;;;;;;;2.58;1.15;;;;;;;;;;6279967;22;20429;-89
2023/08/07 13:59:54;;;;;;;4.95;1.45;;;;;;;;;;6306780;22;20019;-96
2023/08/07 14:02:20;;;;;;;2.15;1.55;;;;;;;;;;6305458;22;20015;-88
2023/08/07 14:04:46;;;;;;;6.30;2.00;;;;;;;;;;6305903;22;20011;-94
2023/08/07 14:07:12;;;;;;;5.32;1.63;;;;;;;;;;6307495;22;20160;-87
2023/08/07 14:09:38;;;;;;;4.53;2.00;;;;;;;;;;6307570;22;20015;-93
2023/08/07 14:12:04;;;;;;;6.03;2.20;;;;;;;;;;6305745;22;20487;-93
2023/08/07 14:14:30;;;;;;;2.20;1.42;;;;;;;;;;6280197;22;20459;-91
2023/08/07 14:17:00;;;;;;;3.22;1.65;;;;;;;;;;6305552;22;20026;-94
2023/08/07 14:19:26;;;;;;;4.78;2.00;;;;;;;;;;6276893;22;20054;-89
2023/08/07 14:21:52;;;;;;;4.65;2.15;;;;;;;;;;6305501;22;20015;-94
2023/08/07 14:24:18;;;;;;;4.15;1.77;;;;;;;;;;6305164;22;20068;-88
2023/08/07 14:26:44;;;;;;;2.65;1.38;;;;;;;;;;6278402;22;20020;-91
2023/08/07 14:29:10;;;;;;;4.30;1.83;;;;;;;;;;6306199;22;20012;-94
2023/08/07 14:31:36;;;;;;;3.20;1.27;;;;;;;;;;6279141;22;20372;-94
2023/08/07 14:34:02;;;;;;;5.85;1.80;;;;;;;;;;6305033;22;20011;-90
2023/08/07 14:36:28;;;;;;;8.35;2.40;;;;;;;;;;6304854;22;20016;-94
2023/08/07 14:38:54;;;;;;;3.13;1.90;;;;;;;;;;6307549;22;20065;-91